Time;durP1;ratioP1;P1;durP2;ratioP2;P2;SDS_P1;SDS_P2;PMS_P1;PMS_P2;Temp;Humidity;BMP_temperature;BMP_pressure;BME280_temperature;BME280_humidity;BME280_pressure;Samples;Min_cycle;Max_cycle;Signal;HPM_P1;HPM_P2
2023/06/20 00:02:04;;;;;;;9.13;3.67;;;;;;;;;;5021761;28;20047;-68
2023/06/20 00:04:31;;;;;;;8.20;3.38;;;;;;;;;;5017317;28;20041;-69
2023/06/20 00:07:00;;;;;;;8.70;3.60;;;;;;;;;;5021354;28;22652;-68
2023/06/20 00:09:28;;;;;;;11.25;3.35;;;;;;;;;;5011073;28;20463;-68
2023/06/20 00:11:57;;;;;;;7.70;3.40;;;;;;;;;;4991721;28;20041;-69
2023/06/20 00:14:25;;;;;;;9.00;3.03;;;;;;;;;;5001274;28;20036;-68
2023/06/20 00:16:59;;;;;;;9.27;2.97;;;;;;;;;;5019620;28;20568;-69
2023/06/20 00:19:27;;;;;;;8.57;3.63;;;;;;;;;;5026070;28;20064;-68
2023/06/20 00:21:54;;;;;;;9.77;3.63;;;;;;;;;;5016516;28;20043;-68
2023/06/20 00:24:22;;;;;;;9.90;3.38;;;;;;;;;;5025524;28;20466;-68
2023/06/20 00:26:50;;;;;;;9.43;3.67;;;;;;;;;;5009066;28;20789;-67
2023/06/20 00:29:20;;;;;;;8.85;3.70;;;;;;;;;;5025094;28;20483;-69
2023/06/20 00:31:48;;;;;;;11.52;3.28;;;;;;;;;;5018783;28;21780;-68
2023/06/20 00:34:16;;;;;;;9.98;3.88;;;;;;;;;;5014135;28;20041;-68
2023/06/20 00:36:45;;;;;;;10.90;3.42;;;;;;;;;;5021186;28;20037;-68
2023/06/20 00:39:12;;;;;;;15.10;3.60;;;;;;;;;;5033383;28;20057;-68
2023/06/20 00:41:40;;;;;;;9.70;3.15;;;;;;;;;;5022854;28;20543;-68
2023/06/20 00:44:08;;;;;;;11.23;3.13;;;;;;;;;;5017340;28;20052;-68
2023/06/20 00:46:38;;;;;;;8.40;2.70;;;;;;;;;;5019437;28;20048;-66
2023/06/20 00:49:09;;;;;;;8.43;3.38;;;;;;;;;;5024646;28;20037;-69
2023/06/20 00:51:38;;;;;;;9.20;3.47;;;;;;;;;;5015283;28;20048;-69
2023/06/20 00:54:06;;;;;;;11.50;3.33;;;;;;;;;;5027984;28;20041;-68
2023/06/20 00:56:34;;;;;;;13.10;3.28;;;;;;;;;;5009273;28;20041;-68
2023/06/20 00:59:04;;;;;;;10.70;3.30;;;;;;;;;;5028661;28;20037;-69
2023/06/20 01:01:32;;;;;;;8.93;3.47;;;;;;;;;;5000137;28;20501;-69
2023/06/20 01:04:02;;;;;;;9.60;3.20;;;;;;;;;;5022973;28;20136;-68
2023/06/20 01:06:35;;;;;;;7.90;2.90;;;;;;;;;;4990816;28;20111;-68
2023/06/20 01:09:06;;;;;;;9.80;3.35;;;;;;;;;;5026814;28;20035;-68
2023/06/20 01:11:36;;;;;;;9.23;3.00;;;;;;;;;;5006396;28;20056;-68
2023/06/20 01:14:09;;;;;;;9.38;2.60;;;;;;;;;;5022826;28;20033;-68
2023/06/20 01:16:42;;;;;;;8.93;3.47;;;;;;;;;;5023451;28;20494;-68
2023/06/20 01:19:21;;;;;;;9.52;3.40;;;;;;;;;;5011125;28;20057;-67
2023/06/20 01:21:51;;;;;;;10.38;3.13;;;;;;;;;;5024958;28;20490;-67
2023/06/20 01:24:23;;;;;;;10.18;3.40;;;;;;;;;;5011292;28;20561;-68
2023/06/20 01:26:56;;;;;;;9.98;3.55;;;;;;;;;;5026611;28;20102;-68
2023/06/20 01:29:32;;;;;;;12.67;3.83;;;;;;;;;;5026466;28;20978;-68
2023/06/20 01:32:02;;;;;;;8.73;3.08;;;;;;;;;;5028944;28;20037;-67
2023/06/20 01:34:31;;;;;;;10.80;3.20;;;;;;;;;;5010013;28;20288;-68
2023/06/20 01:36:59;;;;;;;8.55;3.58;;;;;;;;;;5030137;28;20056;-68
2023/06/20 01:39:32;;;;;;;8.57;2.72;;;;;;;;;;5012638;28;20068;-67
2023/06/20 01:42:03;;;;;;;8.67;3.10;;;;;;;;;;5013839;28;20080;-68
2023/06/20 01:44:35;;;;;;;8.05;3.25;;;;;;;;;;5025089;28;20127;-68
2023/06/20 01:47:04;;;;;;;10.02;3.60;;;;;;;;;;5020842;28;20053;-68
2023/06/20 01:49:33;;;;;;;9.48;3.58;;;;;;;;;;4997133;28;20052;-67
2023/06/20 01:52:01;;;;;;;8.25;2.90;;;;;;;;;;5026326;28;20040;-68
2023/06/20 01:54:49;;;;;;;10.10;4.07;;;;;;;;;;5015451;28;20072;-67
2023/06/20 01:57:18;;;;;;;9.10;3.40;;;;;;;;;;4986856;28;20605;-68
2023/06/20 01:59:46;;;;;;;10.35;4.32;;;;;;;;;;5021490;28;20427;-67
2023/06/20 02:02:15;;;;;;;9.45;3.60;;;;;;;;;;5022730;28;20479;-68
2023/06/20 02:04:45;;;;;;;9.50;3.83;;;;;;;;;;5010557;28;20041;-68
2023/06/20 02:07:14;;;;;;;8.80;3.00;;;;;;;;;;5029697;28;20041;-69
2023/06/20 02:09:44;;;;;;;11.18;3.88;;;;;;;;;;5011464;28;20068;-67
2023/06/20 02:12:15;;;;;;;10.15;3.58;;;;;;;;;;4986050;28;20044;-68
2023/06/20 02:14:44;;;;;;;11.07;3.63;;;;;;;;;;5017861;28;20503;-68
2023/06/20 02:17:13;;;;;;;8.80;2.88;;;;;;;;;;5018907;28;20069;-68
2023/06/20 02:19:41;;;;;;;11.57;3.50;;;;;;;;;;5020599;28;20040;-69
2023/06/20 02:22:09;;;;;;;9.73;3.42;;;;;;;;;;5012549;28;20391;-68
2023/06/20 02:24:37;;;;;;;10.60;3.55;;;;;;;;;;5025563;28;20045;-68
2023/06/20 02:27:06;;;;;;;12.30;3.42;;;;;;;;;;5018228;28;20481;-68
2023/06/20 02:29:38;;;;;;;8.85;3.50;;;;;;;;;;5022969;28;20055;-68
2023/06/20 02:32:08;;;;;;;8.23;3.50;;;;;;;;;;4985831;28;20540;-67
2023/06/20 02:34:41;;;;;;;9.43;3.42;;;;;;;;;;5026747;28;20720;-67
2023/06/20 02:37:09;;;;;;;9.85;3.50;;;;;;;;;;5013905;28;20042;-68
2023/06/20 02:39:37;;;;;;;9.35;3.15;;;;;;;;;;5014793;28;20037;-68
2023/06/20 02:42:05;;;;;;;11.07;3.40;;;;;;;;;;5006891;28;20635;-68
2023/06/20 02:44:32;;;;;;;9.53;3.40;;;;;;;;;;5037722;28;20044;-68
2023/06/20 02:47:06;;;;;;;11.88;3.83;;;;;;;;;;5018574;28;20048;-68
2023/06/20 02:49:38;;;;;;;9.95;3.75;;;;;;;;;;4988038;28;20041;-67
2023/06/20 02:52:11;;;;;;;9.70;3.08;;;;;;;;;;5014344;28;20037;-67
2023/06/20 02:54:45;;;;;;;9.65;3.03;;;;;;;;;;5016884;28;20053;-68
2023/06/20 02:57:15;;;;;;;11.23;3.90;;;;;;;;;;5007655;28;20527;-67
2023/06/20 02:59:44;;;;;;;11.25;4.15;;;;;;;;;;5019141;28;20044;-68
2023/06/20 03:02:14;;;;;;;10.80;3.83;;;;;;;;;;5024431;28;20047;-68
2023/06/20 03:04:42;;;;;;;10.18;3.97;;;;;;;;;;5015612;28;20047;-70
2023/06/20 03:07:10;;;;;;;10.82;3.75;;;;;;;;;;5025450;28;20041;-68
2023/06/20 03:09:41;;;;;;;12.87;4.60;;;;;;;;;;5023431;28;20507;-69
2023/06/20 03:12:11;;;;;;;12.65;4.13;;;;;;;;;;5019258;28;20036;-68
2023/06/20 03:14:40;;;;;;;13.48;3.80;;;;;;;;;;5018938;28;20041;-68
2023/06/20 03:17:08;;;;;;;11.77;3.63;;;;;;;;;;5011819;28;20048;-69
2023/06/20 03:19:37;;;;;;;11.75;3.85;;;;;;;;;;5025979;28;20049;-67
2023/06/20 03:22:05;;;;;;;10.93;4.20;;;;;;;;;;5015096;28;20435;-70
2023/06/20 03:24:35;;;;;;;11.13;3.90;;;;;;;;;;5017007;28;20542;-70
2023/06/20 03:27:03;;;;;;;12.75;4.85;;;;;;;;;;4999269;28;20798;-70
2023/06/20 03:29:31;;;;;;;11.15;4.50;;;;;;;;;;5030111;28;20036;-69
2023/06/20 03:31:58;;;;;;;11.10;4.28;;;;;;;;;;5004963;28;21178;-69
2023/06/20 03:34:27;;;;;;;10.57;4.60;;;;;;;;;;5025030;28;20269;-70
2023/06/20 03:36:56;;;;;;;11.60;4.90;;;;;;;;;;5007047;28;20044;-70
2023/06/20 03:39:24;;;;;;;11.85;4.15;;;;;;;;;;5026394;28;20041;-69
2023/06/20 03:41:51;;;;;;;13.60;4.55;;;;;;;;;;5003627;28;21103;-69
2023/06/20 03:44:19;;;;;;;9.50;4.47;;;;;;;;;;5015313;28;20040;-68
2023/06/20 03:46:47;;;;;;;13.90;4.90;;;;;;;;;;4997573;28;20410;-70
2023/06/20 03:49:14;;;;;;;8.95;4.20;;;;;;;;;;5027729;28;20426;-69
2023/06/20 03:51:42;;;;;;;10.23;4.03;;;;;;;;;;5011472;28;20120;-70
2023/06/20 03:54:11;;;;;;;10.70;4.13;;;;;;;;;;5020189;28;20044;-69
2023/06/20 03:56:39;;;;;;;12.57;4.55;;;;;;;;;;5011996;28;20040;-69
2023/06/20 03:59:07;;;;;;;12.47;4.10;;;;;;;;;;5023360;28;20064;-69
2023/06/20 04:01:36;;;;;;;14.70;4.72;;;;;;;;;;5018503;28;20138;-68
2023/06/20 04:04:05;;;;;;;12.63;4.70;;;;;;;;;;5018672;28;20037;-69
2023/06/20 04:06:34;;;;;;;15.65;5.50;;;;;;;;;;5025873;28;20792;-67
2023/06/20 04:09:04;;;;;;;10.93;5.00;;;;;;;;;;5007430;28;20045;-68
2023/06/20 04:11:33;;;;;;;14.00;5.30;;;;;;;;;;5021138;28;20045;-66
2023/06/20 04:14:00;;;;;;;15.95;6.18;;;;;;;;;;5006871;28;20033;-65
2023/06/20 04:16:28;;;;;;;14.30;5.10;;;;;;;;;;5017772;28;20430;-65
2023/06/20 04:18:56;;;;;;;16.38;5.80;;;;;;;;;;5008963;28;20414;-65
2023/06/20 04:21:23;;;;;;;17.95;6.18;;;;;;;;;;5031028;28;20029;-66
2023/06/20 04:23:51;;;;;;;17.50;5.57;;;;;;;;;;5005366;28;20037;-66
2023/06/20 04:26:19;;;;;;;18.35;5.65;;;;;;;;;;5023269;28;20033;-66
2023/06/20 04:28:49;;;;;;;19.95;6.13;;;;;;;;;;5005204;28;20439;-66
2023/06/20 04:31:16;;;;;;;21.48;6.70;;;;;;;;;;5018308;28;20060;-66
2023/06/20 04:33:45;;;;;;;24.73;6.45;;;;;;;;;;5010513;28;20061;-64
2023/06/20 04:36:13;;;;;;;17.70;5.93;;;;;;;;;;5015512;28;20486;-64
2023/06/20 04:38:41;;;;;;;23.98;6.10;;;;;;;;;;5003937;28;20491;-63
2023/06/20 04:41:08;;;;;;;15.25;5.57;;;;;;;;;;5020552;28;20059;-63
2023/06/20 04:43:36;;;;;;;19.42;6.38;;;;;;;;;;5009313;28;20041;-63
2023/06/20 04:46:06;;;;;;;17.60;5.85;;;;;;;;;;5021997;28;20060;-63
2023/06/20 04:48:35;;;;;;;18.17;6.23;;;;;;;;;;5012414;28;20041;-63
2023/06/20 04:51:07;;;;;;;23.75;6.68;;;;;;;;;;5020892;28;20056;-63
2023/06/20 04:53:37;;;;;;;22.80;7.20;;;;;;;;;;5021450;28;20435;-61
2023/06/20 04:56:05;;;;;;;22.15;6.63;;;;;;;;;;5010689;28;20044;-60
2023/06/20 04:58:33;;;;;;;22.60;6.70;;;;;;;;;;5021815;28;20090;-59
2023/06/20 05:01:01;;;;;;;18.73;6.83;;;;;;;;;;5009344;28;20049;-59
2023/06/20 05:03:30;;;;;;;21.92;7.05;;;;;;;;;;5027910;28;20051;-58
2023/06/20 05:05:58;;;;;;;20.13;6.85;;;;;;;;;;5006837;28;20525;-58
2023/06/20 05:08:26;;;;;;;22.00;7.00;;;;;;;;;;5017955;28;20052;-58
2023/06/20 05:10:54;;;;;;;20.27;6.75;;;;;;;;;;5020856;28;20040;-59
2023/06/20 05:13:21;;;;;;;20.50;6.67;;;;;;;;;;5028749;28;20510;-58
2023/06/20 05:15:49;;;;;;;20.48;5.78;;;;;;;;;;5016793;28;20052;-57
2023/06/20 05:18:17;;;;;;;18.60;6.32;;;;;;;;;;5027943;28;20049;-57
2023/06/20 05:20:46;;;;;;;16.65;5.60;;;;;;;;;;5010047;28;20029;-58
2023/06/20 05:23:14;;;;;;;21.80;5.40;;;;;;;;;;5016239;28;20050;-58
2023/06/20 05:25:42;;;;;;;20.33;5.90;;;;;;;;;;5005650;28;20033;-58
2023/06/20 05:28:10;;;;;;;18.55;4.90;;;;;;;;;;5020414;28;20491;-57
2023/06/20 05:30:38;;;;;;;17.08;4.80;;;;;;;;;;5011087;28;20037;-57
2023/06/20 05:33:05;;;;;;;18.65;5.43;;;;;;;;;;5024540;28;20044;-56
2023/06/20 05:35:33;;;;;;;15.85;4.78;;;;;;;;;;5015726;28;20033;-57
2023/06/20 05:38:03;;;;;;;12.40;4.63;;;;;;;;;;5020612;28;20041;-56
2023/06/20 05:40:31;;;;;;;11.10;4.55;;;;;;;;;;5011603;28;20523;-52
2023/06/20 05:42:59;;;;;;;14.18;4.13;;;;;;;;;;5020050;28;20053;-53
2023/06/20 05:45:27;;;;;;;22.27;4.47;;;;;;;;;;5001722;28;20458;-48
2023/06/20 05:47:58;;;;;;;18.10;4.95;;;;;;;;;;5017748;28;20049;-50
2023/06/20 05:50:26;;;;;;;18.13;5.13;;;;;;;;;;5021938;28;20065;-47
2023/06/20 05:52:55;;;;;;;18.95;5.35;;;;;;;;;;5003577;28;20103;-48
2023/06/20 05:55:24;;;;;;;22.27;4.93;;;;;;;;;;5029019;28;20048;-47
2023/06/20 05:57:51;;;;;;;18.08;4.90;;;;;;;;;;5009507;28;20045;-47
2023/06/20 06:00:19;;;;;;;15.93;4.65;;;;;;;;;;5027673;28;20060;-45
2023/06/20 06:02:47;;;;;;;15.77;4.67;;;;;;;;;;5006893;28;20895;-45
2023/06/20 06:05:15;;;;;;;15.50;5.32;;;;;;;;;;5018909;28;20040;-45
2023/06/20 06:07:43;;;;;;;12.50;4.60;;;;;;;;;;5007149;28;20311;-46
2023/06/20 06:10:11;;;;;;;15.77;4.10;;;;;;;;;;5021825;28;20045;-45
2023/06/20 06:12:40;;;;;;;15.95;4.38;;;;;;;;;;5006906;28;20056;-47
2023/06/20 06:15:09;;;;;;;18.33;4.80;;;;;;;;;;5033445;28;20047;-45
2023/06/20 06:17:37;;;;;;;13.15;3.97;;;;;;;;;;5019731;28;20107;-45
2023/06/20 06:20:10;;;;;;;12.68;4.35;;;;;;;;;;5020333;28;20044;-45
2023/06/20 06:22:38;;;;;;;14.35;4.57;;;;;;;;;;5017791;28;20528;-45
2023/06/20 06:25:07;;;;;;;11.75;4.03;;;;;;;;;;5020883;28;20033;-45
2023/06/20 06:27:35;;;;;;;13.20;4.43;;;;;;;;;;5014926;28;20037;-48
2023/06/20 06:30:06;;;;;;;11.48;3.83;;;;;;;;;;5010314;28;20487;-47
2023/06/20 06:32:34;;;;;;;14.10;3.97;;;;;;;;;;5025545;28;20106;-46
2023/06/20 06:35:02;;;;;;;14.50;4.20;;;;;;;;;;5017228;28;20045;-45
2023/06/20 06:37:30;;;;;;;12.75;5.10;;;;;;;;;;5023887;28;20487;-46
2023/06/20 06:39:58;;;;;;;11.10;4.07;;;;;;;;;;5004395;28;20064;-47
2023/06/20 06:42:26;;;;;;;16.15;5.35;;;;;;;;;;5013387;28;20414;-45
2023/06/20 06:44:54;;;;;;;14.75;4.63;;;;;;;;;;5014010;28;20398;-45
2023/06/20 06:47:23;;;;;;;15.85;4.85;;;;;;;;;;5020915;28;20427;-46
2023/06/20 06:49:51;;;;;;;13.10;4.60;;;;;;;;;;5008841;28;20455;-45
2023/06/20 06:52:19;;;;;;;12.53;4.57;;;;;;;;;;5022155;28;20037;-45
2023/06/20 06:54:47;;;;;;;15.60;4.80;;;;;;;;;;5013898;28;20120;-46
2023/06/20 06:57:15;;;;;;;14.82;4.80;;;;;;;;;;5022590;28;20415;-47
2023/06/20 06:59:42;;;;;;;11.70;4.63;;;;;;;;;;5005420;28;20052;-47
2023/06/20 07:02:10;;;;;;;13.23;4.97;;;;;;;;;;5027544;28;20056;-43
2023/06/20 07:04:39;;;;;;;15.53;5.00;;;;;;;;;;5021267;28;20044;-45
2023/06/20 07:07:07;;;;;;;14.68;4.63;;;;;;;;;;5021128;28;20051;-44
2023/06/20 07:09:36;;;;;;;13.65;4.70;;;;;;;;;;5023550;28;20041;-46
2023/06/20 07:12:04;;;;;;;17.20;4.78;;;;;;;;;;5015498;28;20076;-44
2023/06/20 07:14:33;;;;;;;12.32;4.20;;;;;;;;;;5008457;28;20048;-45
2023/06/20 07:17:01;;;;;;;13.43;4.83;;;;;;;;;;5025107;28;20159;-45
2023/06/20 07:19:33;;;;;;;14.20;5.43;;;;;;;;;;5016185;28;20597;-43
2023/06/20 07:22:03;;;;;;;16.58;4.72;;;;;;;;;;5015631;28;20045;-45
2023/06/20 07:24:31;;;;;;;16.33;4.90;;;;;;;;;;5019204;28;20041;-46
2023/06/20 07:26:59;;;;;;;14.27;4.75;;;;;;;;;;5014239;28;20036;-45
2023/06/20 07:29:27;;;;;;;12.40;4.53;;;;;;;;;;5015402;28;20040;-45
2023/06/20 07:31:55;;;;;;;10.60;4.47;;;;;;;;;;5006916;28;20044;-46
2023/06/20 07:34:22;;;;;;;14.30;4.72;;;;;;;;;;5026604;28;20501;-45
2023/06/20 07:36:51;;;;;;;12.93;4.28;;;;;;;;;;5004076;28;20199;-44
2023/06/20 07:39:21;;;;;;;12.55;4.63;;;;;;;;;;5011654;28;20403;-47
2023/06/20 07:41:49;;;;;;;15.77;4.53;;;;;;;;;;5000471;28;20755;-46
2023/06/20 07:44:16;;;;;;;15.60;4.72;;;;;;;;;;5019506;28;20049;-44
2023/06/20 07:46:44;;;;;;;12.05;4.93;;;;;;;;;;5006588;28;20218;-45
2023/06/20 07:49:12;;;;;;;16.38;5.10;;;;;;;;;;5022541;28;20244;-44
2023/06/20 07:51:40;;;;;;;14.93;5.55;;;;;;;;;;5013477;28;20049;-44
2023/06/20 07:54:08;;;;;;;15.27;4.97;;;;;;;;;;5029567;28;20094;-45
2023/06/20 07:56:37;;;;;;;17.25;5.05;;;;;;;;;;5007361;28;20048;-45
2023/06/20 07:59:05;;;;;;;12.80;4.82;;;;;;;;;;5014043;28;20052;-45
2023/06/20 08:01:33;;;;;;;15.38;5.35;;;;;;;;;;5016444;28;20040;-46
2023/06/20 08:04:02;;;;;;;15.43;5.43;;;;;;;;;;5021769;28;20134;-45
2023/06/20 08:06:32;;;;;;;11.43;4.73;;;;;;;;;;5025555;28;20128;-45
2023/06/20 08:09:00;;;;;;;12.50;5.30;;;;;;;;;;4997043;28;20052;-46
2023/06/20 08:11:29;;;;;;;16.27;4.88;;;;;;;;;;5018374;28;20553;-45
2023/06/20 08:13:58;;;;;;;12.27;4.75;;;;;;;;;;5016481;28;20610;-44
2023/06/20 08:16:26;;;;;;;14.57;5.15;;;;;;;;;;5017860;28;20037;-46
2023/06/20 08:18:54;;;;;;;17.53;5.60;;;;;;;;;;5006222;28;20040;-47
2023/06/20 08:21:22;;;;;;;14.63;5.35;;;;;;;;;;5025752;28;20343;-45
2023/06/20 08:23:50;;;;;;;12.18;5.45;;;;;;;;;;5011171;28;20237;-45
2023/06/20 08:26:17;;;;;;;12.52;4.90;;;;;;;;;;5016987;28;20272;-45
2023/06/20 08:28:45;;;;;;;13.63;5.15;;;;;;;;;;4985517;28;20044;-48
2023/06/20 08:31:15;;;;;;;12.17;4.63;;;;;;;;;;5002845;28;20255;-45
2023/06/20 08:33:43;;;;;;;13.77;4.72;;;;;;;;;;4997995;28;20594;-44
2023/06/20 08:36:11;;;;;;;14.70;4.90;;;;;;;;;;5008165;28;20045;-47
2023/06/20 08:38:41;;;;;;;14.95;4.95;;;;;;;;;;4992532;28;20612;-46
2023/06/20 08:41:09;;;;;;;15.82;5.97;;;;;;;;;;5015215;28;20037;-48
2023/06/20 08:43:37;;;;;;;12.43;5.43;;;;;;;;;;5021466;28;20467;-44
2023/06/20 08:46:05;;;;;;;13.10;5.05;;;;;;;;;;5014722;28;20045;-44
2023/06/20 08:48:34;;;;;;;17.48;5.05;;;;;;;;;;5007912;28;20051;-46
2023/06/20 08:51:03;;;;;;;16.13;5.65;;;;;;;;;;5023429;28;20358;-46
2023/06/20 08:53:34;;;;;;;19.42;5.50;;;;;;;;;;5016090;28;20053;-47
2023/06/20 08:56:02;;;;;;;18.80;5.67;;;;;;;;;;5015932;28;20037;-45
2023/06/20 08:58:31;;;;;;;14.82;5.18;;;;;;;;;;5023226;28;20082;-44
2023/06/20 09:00:59;;;;;;;11.48;5.38;;;;;;;;;;5010480;28;20438;-45
2023/06/20 09:03:28;;;;;;;16.05;5.93;;;;;;;;;;5020539;28;20124;-47
2023/06/20 09:05:57;;;;;;;26.33;6.32;;;;;;;;;;5006449;28;20056;-46
2023/06/20 09:08:33;;;;;;;16.70;5.33;;;;;;;;;;5017292;28;20045;-45
2023/06/20 09:11:08;;;;;;;14.68;5.65;;;;;;;;;;5008636;28;20059;-44
2023/06/20 09:13:36;;;;;;;14.15;5.45;;;;;;;;;;5023120;28;20056;-46
2023/06/20 09:16:07;;;;;;;13.35;5.15;;;;;;;;;;5018977;28;20039;-48
2023/06/20 09:18:36;;;;;;;13.75;5.38;;;;;;;;;;5028079;28;20045;-47
2023/06/20 09:21:05;;;;;;;12.47;4.33;;;;;;;;;;5018826;28;20033;-45
2023/06/20 09:23:33;;;;;;;16.30;5.10;;;;;;;;;;5020666;28;20040;-44
2023/06/20 09:26:14;;;;;;;13.27;5.05;;;;;;;;;;5026567;28;20037;-45
2023/06/20 09:28:42;;;;;;;13.20;5.25;;;;;;;;;;5017903;28;20047;-45
2023/06/20 09:31:10;;;;;;;13.45;4.50;;;;;;;;;;5024466;28;20044;-45
2023/06/20 09:33:38;;;;;;;14.27;5.33;;;;;;;;;;5009213;28;20055;-45
2023/06/20 09:36:13;;;;;;;13.63;5.38;;;;;;;;;;5022721;28;20052;-45
2023/06/20 09:38:44;;;;;;;13.70;4.50;;;;;;;;;;5010989;28;20048;-45
2023/06/20 09:41:16;;;;;;;19.58;5.32;;;;;;;;;;5022280;28;20675;-46
2023/06/20 09:43:44;;;;;;;12.18;5.47;;;;;;;;;;5005319;28;20045;-47
2023/06/20 09:46:11;;;;;;;11.50;4.87;;;;;;;;;;5021419;28;20033;-47
2023/06/20 09:48:40;;;;;;;11.88;5.53;;;;;;;;;;5017984;28;20065;-46
2023/06/20 09:51:13;;;;;;;13.05;5.20;;;;;;;;;;5013243;28;20048;-50
2023/06/20 09:53:45;;;;;;;15.82;4.88;;;;;;;;;;5016848;28;20045;-46
2023/06/20 09:56:13;;;;;;;13.90;5.40;;;;;;;;;;5011608;28;20099;-45
2023/06/20 09:58:44;;;;;;;12.97;5.23;;;;;;;;;;5021536;28;20806;-48
2023/06/20 10:01:13;;;;;;;10.30;4.50;;;;;;;;;;5014530;28;20985;-49
2023/06/20 10:03:41;;;;;;;10.25;4.40;;;;;;;;;;5024679;28;20648;-49
2023/06/20 10:06:09;;;;;;;10.23;4.63;;;;;;;;;;5005987;28;20038;-45
2023/06/20 10:08:38;;;;;;;19.30;5.03;;;;;;;;;;5023733;28;20049;-45
2023/06/20 10:11:07;;;;;;;13.30;4.70;;;;;;;;;;5012965;28;20037;-45
2023/06/20 10:13:35;;;;;;;14.43;5.13;;;;;;;;;;5029456;28;20077;-45
2023/06/20 10:16:04;;;;;;;11.45;4.53;;;;;;;;;;5010455;28;20076;-47
2023/06/20 10:18:36;;;;;;;14.48;5.05;;;;;;;;;;5018181;28;20045;-46
2023/06/20 10:21:08;;;;;;;13.50;4.88;;;;;;;;;;5024260;28;20037;-46
2023/06/20 10:23:37;;;;;;;12.57;4.50;;;;;;;;;;5016359;28;20045;-45
2023/06/20 10:26:10;;;;;;;10.68;4.13;;;;;;;;;;5019390;28;20052;-46
2023/06/20 10:28:39;;;;;;;11.13;4.65;;;;;;;;;;5012831;28;20920;-45
2023/06/20 10:31:07;;;;;;;14.25;4.57;;;;;;;;;;5026577;28;20045;-46
2023/06/20 10:33:36;;;;;;;10.82;4.43;;;;;;;;;;5002989;28;20594;-45
2023/06/20 10:36:04;;;;;;;11.03;4.37;;;;;;;;;;5020370;28;20056;-47
2023/06/20 10:38:33;;;;;;;14.55;6.20;;;;;;;;;;5007070;28;20048;-46
2023/06/20 10:41:14;;;;;;;9.65;4.40;;;;;;;;;;5018796;28;20123;-46
2023/06/20 10:43:49;;;;;;;10.82;4.95;;;;;;;;;;5014761;28;20069;-46
2023/06/20 10:46:18;;;;;;;12.48;4.68;;;;;;;;;;5012017;28;20025;-47
2023/06/20 10:48:46;;;;;;;14.17;5.20;;;;;;;;;;5026543;28;20478;-45
2023/06/20 10:51:14;;;;;;;13.82;4.47;;;;;;;;;;5008524;28;20522;-46
2023/06/20 10:53:42;;;;;;;11.63;4.20;;;;;;;;;;5022284;28;20148;-45
2023/06/20 10:56:21;;;;;;;9.77;3.88;;;;;;;;;;5010181;28;20124;-47
2023/06/20 10:58:50;;;;;;;9.32;4.03;;;;;;;;;;5027565;28;20053;-47
2023/06/20 11:01:18;;;;;;;11.10;3.63;;;;;;;;;;5018523;28;20037;-45
2023/06/20 11:03:49;;;;;;;11.07;3.65;;;;;;;;;;5019434;28;20036;-45
2023/06/20 11:06:17;;;;;;;9.18;3.67;;;;;;;;;;5014490;28;20041;-50
2023/06/20 11:08:45;;;;;;;10.68;3.75;;;;;;;;;;5015871;28;20182;-48
2023/06/20 11:11:13;;;;;;;9.32;3.92;;;;;;;;;;5015889;28;20041;-46
2023/06/20 11:13:44;;;;;;;11.97;4.03;;;;;;;;;;5008659;28;20047;-50
2023/06/20 11:16:17;;;;;;;11.35;4.85;;;;;;;;;;5033516;28;20130;-50
2023/06/20 11:18:45;;;;;;;10.02;4.07;;;;;;;;;;5003833;28;20490;-47
2023/06/20 11:21:15;;;;;;;11.38;4.57;;;;;;;;;;5012721;28;20046;-45
2023/06/20 11:23:43;;;;;;;10.32;4.75;;;;;;;;;;5018191;28;20487;-45
2023/06/20 11:26:11;;;;;;;11.43;4.53;;;;;;;;;;5004769;28;20044;-45
2023/06/20 11:28:38;;;;;;;11.48;5.45;;;;;;;;;;5023457;28;20033;-45
2023/06/20 11:31:11;;;;;;;10.75;5.32;;;;;;;;;;5007769;28;20616;-45
2023/06/20 11:33:39;;;;;;;11.02;4.68;;;;;;;;;;5007577;28;20045;-46
2023/06/20 11:36:07;;;;;;;12.18;5.18;;;;;;;;;;5018975;28;20029;-45
2023/06/20 11:38:38;;;;;;;10.33;4.50;;;;;;;;;;5018761;28;20045;-45
2023/06/20 11:41:07;;;;;;;11.63;5.68;;;;;;;;;;5029912;28;20804;-45
2023/06/20 11:43:36;;;;;;;13.38;5.28;;;;;;;;;;4999542;28;20482;-47
2023/06/20 11:46:04;;;;;;;11.35;5.18;;;;;;;;;;5022410;28;20032;-48
2023/06/20 11:48:33;;;;;;;11.18;5.13;;;;;;;;;;5013202;28;20080;-44
2023/06/20 11:51:02;;;;;;;13.00;4.87;;;;;;;;;;5013319;28;20045;-44
2023/06/20 11:53:33;;;;;;;10.90;5.05;;;;;;;;;;5016621;28;20045;-47
2023/06/20 11:56:04;;;;;;;12.05;5.00;;;;;;;;;;5015971;28;20545;-48
2023/06/20 11:58:40;;;;;;;9.85;4.30;;;;;;;;;;5017225;28;20037;-48
2023/06/20 12:01:11;;;;;;;10.30;4.93;;;;;;;;;;5006378;28;20091;-46
2023/06/20 12:03:41;;;;;;;10.23;4.60;;;;;;;;;;5018963;28;20040;-45
2023/06/20 12:06:28;;;;;;;11.38;5.60;;;;;;;;;;4997023;28;20670;-45
2023/06/20 12:08:59;;;;;;;11.68;5.28;;;;;;;;;;5028114;28;20048;-49
2023/06/20 12:11:29;;;;;;;11.77;4.90;;;;;;;;;;5022436;28;20049;-44
2023/06/20 12:13:57;;;;;;;10.73;5.07;;;;;;;;;;5013579;28;20056;-49
2023/06/20 12:16:26;;;;;;;9.40;4.67;;;;;;;;;;5022989;28;20047;-49
2023/06/20 12:18:59;;;;;;;10.90;4.60;;;;;;;;;;5002412;28;20049;-47
2023/06/20 12:21:27;;;;;;;10.57;4.63;;;;;;;;;;5024248;28;20040;-50
2023/06/20 12:23:55;;;;;;;9.60;4.60;;;;;;;;;;4996878;28;20280;-49
2023/06/20 12:26:24;;;;;;;7.65;3.60;;;;;;;;;;5009331;28;20120;-48
2023/06/20 12:28:53;;;;;;;9.23;4.00;;;;;;;;;;5012572;28;20045;-51
2023/06/20 12:31:20;;;;;;;8.90;3.60;;;;;;;;;;5018583;28;20055;-47
2023/06/20 12:33:48;;;;;;;7.80;3.53;;;;;;;;;;5010151;28;20052;-48
2023/06/20 12:36:17;;;;;;;7.43;3.42;;;;;;;;;;5016748;28;20064;-47
2023/06/20 12:38:45;;;;;;;8.65;4.28;;;;;;;;;;5014010;28;20060;-45
2023/06/20 12:41:13;;;;;;;8.17;3.40;;;;;;;;;;5010784;28;20041;-49
2023/06/20 12:43:41;;;;;;;6.93;3.17;;;;;;;;;;4966818;28;20035;-47
2023/06/20 12:46:09;;;;;;;9.23;4.00;;;;;;;;;;4969615;28;20038;-45
2023/06/20 12:48:40;;;;;;;9.43;4.15;;;;;;;;;;4978216;28;20046;-47
2023/06/20 12:51:07;;;;;;;7.15;3.45;;;;;;;;;;4955892;28;20515;-46
2023/06/20 12:53:37;;;;;;;7.73;3.37;;;;;;;;;;4973227;28;20052;-48
2023/06/20 12:56:05;;;;;;;6.63;2.75;;;;;;;;;;4963087;28;20057;-46
2023/06/20 12:58:33;;;;;;;7.00;2.65;;;;;;;;;;4972112;28;20042;-45
2023/06/20 13:01:02;;;;;;;6.85;3.20;;;;;;;;;;4971088;28;20591;-48
2023/06/20 13:03:30;;;;;;;7.05;3.08;;;;;;;;;;4969295;28;20038;-45
2023/06/20 13:05:58;;;;;;;6.60;3.07;;;;;;;;;;4957147;28;20137;-48
2023/06/20 13:08:26;;;;;;;7.15;2.97;;;;;;;;;;4984174;28;20053;-45
2023/06/20 13:10:57;;;;;;;7.30;3.08;;;;;;;;;;4947861;28;20046;-50
2023/06/20 13:13:26;;;;;;;6.65;2.72;;;;;;;;;;4989755;28;20413;-46
2023/06/20 13:15:53;;;;;;;8.02;3.08;;;;;;;;;;4962439;28;20053;-47
2023/06/20 13:18:22;;;;;;;7.43;3.23;;;;;;;;;;4975053;28;20053;-46
2023/06/20 13:20:51;;;;;;;7.32;3.60;;;;;;;;;;4967787;28;20042;-49
2023/06/20 13:23:19;;;;;;;7.00;2.33;;;;;;;;;;4976468;28;20045;-48
2023/06/20 13:25:47;;;;;;;7.47;2.45;;;;;;;;;;4978553;28;20125;-48
2023/06/20 13:28:16;;;;;;;6.68;2.78;;;;;;;;;;4990943;28;20156;-46
2023/06/20 13:30:48;;;;;;;5.90;2.37;;;;;;;;;;4980425;28;20045;-48
2023/06/20 13:33:16;;;;;;;7.35;2.45;;;;;;;;;;4965255;28;20521;-52
2023/06/20 13:35:44;;;;;;;5.40;2.40;;;;;;;;;;4978144;28;20053;-46
2023/06/20 13:38:12;;;;;;;7.72;2.65;;;;;;;;;;4967621;28;20421;-49
2023/06/20 13:40:40;;;;;;;6.35;2.70;;;;;;;;;;4976497;28;20042;-49
2023/06/20 13:43:07;;;;;;;5.77;2.10;;;;;;;;;;5003713;28;20511;-51
2023/06/20 13:45:36;;;;;;;10.50;2.08;;;;;;;;;;5025840;28;20037;-46
2023/06/20 13:48:04;;;;;;;5.78;2.08;;;;;;;;;;5009872;28;20044;-46
2023/06/20 13:50:33;;;;;;;5.22;1.90;;;;;;;;;;5020383;28;20049;-50
2023/06/20 13:53:04;;;;;;;5.38;1.98;;;;;;;;;;5007046;28;20638;-46
2023/06/20 13:55:32;;;;;;;4.90;1.77;;;;;;;;;;5026442;28;20049;-45
2023/06/20 13:58:00;;;;;;;5.18;1.63;;;;;;;;;;5015952;28;20041;-47
2023/06/20 14:00:28;;;;;;;6.60;1.90;;;;;;;;;;5019387;28;20655;-45
2023/06/20 14:02:57;;;;;;;5.50;1.70;;;;;;;;;;5009681;28;20506;-46
2023/06/20 14:05:25;;;;;;;5.93;1.88;;;;;;;;;;5020162;28;20044;-47
2023/06/20 14:07:53;;;;;;;4.07;1.40;;;;;;;;;;4995595;28;20304;-45
2023/06/20 14:10:21;;;;;;;4.78;1.95;;;;;;;;;;5025432;28;20094;-46
2023/06/20 14:12:49;;;;;;;4.35;2.00;;;;;;;;;;5023549;28;20136;-49
2023/06/20 14:15:17;;;;;;;6.15;1.63;;;;;;;;;;5025154;28;20060;-45
2023/06/20 14:17:45;;;;;;;4.85;1.98;;;;;;;;;;5014994;28;20507;-46
2023/06/20 14:20:14;;;;;;;4.67;1.60;;;;;;;;;;5026854;28;20691;-46
2023/06/20 14:22:42;;;;;;;6.20;1.85;;;;;;;;;;5013768;28;20087;-46
2023/06/20 14:25:10;;;;;;;4.80;2.10;;;;;;;;;;5020269;28;20088;-45
2023/06/20 14:27:38;;;;;;;5.38;1.85;;;;;;;;;;5006586;28;20499;-46
2023/06/20 14:30:07;;;;;;;7.18;2.00;;;;;;;;;;5024611;28;20552;-47
2023/06/20 14:32:38;;;;;;;4.33;1.53;;;;;;;;;;5008553;28;20458;-48
2023/06/20 14:35:06;;;;;;;5.22;2.08;;;;;;;;;;5025021;28;20102;-46
2023/06/20 14:37:35;;;;;;;4.30;1.65;;;;;;;;;;5022308;28;20095;-45
2023/06/20 14:40:04;;;;;;;6.68;2.25;;;;;;;;;;5003603;28;20051;-47
2023/06/20 14:42:31;;;;;;;5.35;1.73;;;;;;;;;;5025663;28;20048;-46
2023/06/20 14:44:59;;;;;;;4.83;1.93;;;;;;;;;;5016336;28;20251;-47